Time;durP1;ratioP1;P1;durP2;ratioP2;P2;SDS_P1;SDS_P2;PMS_P1;PMS_P2;Temp;Humidity;BMP_temperature;BMP_pressure;BME280_temperature;BME280_humidity;BME280_pressure;Samples;Min_cycle;Max_cycle;Signal;HPM_P1;HPM_P2
2024/01/06 00:02:07;;;;;;;7.50;4.95;;;10.70;69.50;12.30;100147.00;;;;5032817;28;20226;-72
2024/01/06 00:04:34;;;;;;;6.40;4.65;;;10.70;69.50;12.30;100157.00;;;;5031943;28;20195;-72
2024/01/06 00:07:01;;;;;;;6.03;4.43;;;10.60;69.50;12.30;100150.00;;;;5032561;28;20614;-72
2024/01/06 00:09:28;;;;;;;6.25;4.72;;;10.60;69.60;12.30;100160.00;;;;5032673;28;20204;-73
2024/01/06 00:11:55;;;;;;;5.53;4.10;;;10.60;69.60;12.30;100166.00;;;;5031925;28;20283;-73
2024/01/06 00:14:22;;;;;;;5.88;4.85;;;10.60;69.50;12.20;100168.00;;;;5033329;28;20224;-73
2024/01/06 00:16:49;;;;;;;6.32;4.78;;;10.60;69.40;12.20;100181.00;;;;5032051;28;20307;-72
2024/01/06 00:19:17;;;;;;;5.78;4.53;;;10.50;69.10;12.10;100185.00;;;;5031679;28;20200;-73
2024/01/06 00:21:45;;;;;;;6.15;4.32;;;10.50;69.10;12.20;100188.00;;;;5032198;28;20207;-72
2024/01/06 00:24:12;;;;;;;5.57;3.83;;;10.50;69.20;12.10;100198.00;;;;5031771;28;20192;-72
2024/01/06 00:26:39;;;;;;;5.50;3.85;;;10.50;69.20;12.10;100192.00;;;;5032141;28;20208;-72
2024/01/06 00:29:06;;;;;;;5.05;4.15;;;10.40;69.00;12.10;100200.00;;;;5031264;28;20571;-73
2024/01/06 00:31:33;;;;;;;5.07;4.13;;;10.40;68.90;12.00;100192.00;;;;5041072;28;20210;-74
2024/01/06 00:34:00;;;;;;;4.40;3.55;;;10.40;68.90;12.00;100194.00;;;;5031845;28;20226;-72
2024/01/06 00:36:28;;;;;;;3.33;2.92;;;10.40;68.90;11.90;100196.00;;;;5031280;28;20224;-72
2024/01/06 00:38:55;;;;;;;4.00;3.30;;;10.30;68.90;11.90;100193.00;;;;5031928;28;20198;-72
2024/01/06 00:41:22;;;;;;;4.15;3.25;;;10.30;68.90;11.90;100198.00;;;;5031724;28;20203;-73
2024/01/06 00:43:49;;;;;;;4.25;3.15;;;10.30;68.80;11.90;100206.00;;;;5031505;28;20199;-73
2024/01/06 00:46:16;;;;;;;3.60;3.25;;;10.20;68.70;11.90;100210.00;;;;5031113;28;20197;-72
2024/01/06 00:48:43;;;;;;;3.63;2.92;;;10.20;68.70;11.90;100208.00;;;;5043277;28;20207;-72
2024/01/06 00:51:10;;;;;;;5.07;2.65;;;10.20;68.80;11.80;100208.00;;;;5031464;28;20662;-72
2024/01/06 00:53:39;;;;;;;3.00;2.63;;;10.20;68.70;11.80;100206.00;;;;5034759;28;20211;-72
2024/01/06 00:56:06;;;;;;;3.45;2.95;;;10.20;68.70;11.80;100210.00;;;;5031142;28;20214;-73
2024/01/06 00:58:33;;;;;;;3.28;2.55;;;10.10;68.70;11.80;100212.00;;;;5031496;28;20199;-73
2024/01/06 01:01:00;;;;;;;3.22;2.65;;;10.10;68.70;11.70;100214.00;;;;5030742;28;20192;-71
2024/01/06 01:03:27;;;;;;;3.50;2.97;;;10.10;68.70;11.70;100221.00;;;;5031326;28;20579;-71
2024/01/06 01:05:54;;;;;;;3.58;3.22;;;10.10;68.70;11.70;100222.00;;;;5032010;28;20241;-72
2024/01/06 01:08:21;;;;;;;3.00;2.30;;;10.00;68.70;11.70;100224.00;;;;5031121;28;20196;-72
2024/01/06 01:10:49;;;;;;;3.78;2.75;;;10.00;68.70;11.60;100224.00;;;;5031070;28;20193;-72
2024/01/06 01:13:16;;;;;;;3.90;2.70;;;10.00;68.80;11.60;100224.00;;;;5031064;28;20788;-73
2024/01/06 01:15:43;;;;;;;3.20;2.75;;;10.00;68.80;11.60;100236.00;;;;5031107;28;20215;-73
2024/01/06 01:18:10;;;;;;;3.85;2.92;;;10.00;68.80;11.60;100236.00;;;;5031690;28;20224;-72
2024/01/06 01:20:37;;;;;;;3.47;3.00;;;10.00;68.90;11.60;100240.00;;;;5030893;28;20197;-72
2024/01/06 01:23:05;;;;;;;2.92;2.60;;;10.00;69.00;11.70;100244.00;;;;5046423;28;20203;-73
2024/01/06 01:25:32;;;;;;;3.72;2.75;;;10.00;69.00;11.60;100240.00;;;;5031172;28;20193;-72
2024/01/06 01:28:00;;;;;;;2.55;2.10;;;10.00;68.90;11.60;100251.00;;;;5030612;28;20207;-73
2024/01/06 01:30:28;;;;;;;3.33;2.70;;;9.90;68.80;11.60;100254.00;;;;5031189;28;20676;-73
2024/01/06 01:32:55;;;;;;;3.83;2.75;;;9.90;68.80;11.60;100252.00;;;;5031140;28;20218;-73
2024/01/06 01:35:22;;;;;;;3.17;2.58;;;9.90;68.80;11.60;100259.00;;;;5014675;28;20717;-73
2024/01/06 01:37:49;;;;;;;3.42;2.75;;;9.90;68.80;11.60;100264.00;;;;5030808;28;20700;-72
2024/01/06 01:40:16;;;;;;;4.10;2.50;;;9.90;68.80;11.60;100268.00;;;;5031238;28;20243;-73
2024/01/06 01:42:44;;;;;;;3.00;2.63;;;9.90;68.80;11.60;100269.00;;;;5030970;28;20196;-73
2024/01/06 01:45:12;;;;;;;3.38;2.70;;;9.90;68.90;11.60;100275.00;;;;5030994;28;20202;-73
2024/01/06 01:47:40;;;;;;;3.65;2.83;;;9.90;68.90;11.60;100281.00;;;;5031070;28;20291;-73
2024/01/06 01:50:08;;;;;;;3.55;2.55;;;9.90;68.90;11.60;100281.00;;;;5034741;28;20203;-72
2024/01/06 01:52:38;;;;;;;4.15;2.67;;;9.90;68.80;11.60;100292.00;;;;5034714;28;20211;-73
2024/01/06 01:55:06;;;;;;;3.42;2.65;;;9.90;68.80;11.60;100301.00;;;;5037480;28;20228;-73
2024/01/06 01:57:33;;;;;;;2.80;2.30;;;9.90;68.80;11.50;100296.00;;;;5045503;28;20226;-73
2024/01/06 02:00:02;;;;;;;3.75;2.42;;;9.90;68.70;11.50;100295.00;;;;5034265;28;20196;-72
2024/01/06 02:02:32;;;;;;;3.17;2.58;;;9.80;68.50;11.50;100299.00;;;;5034469;28;20219;-72
2024/01/06 02:05:00;;;;;;;3.05;2.50;;;9.80;68.60;11.50;100313.00;;;;5034562;28;20211;-73
2024/01/06 02:07:27;;;;;;;3.15;2.80;;;9.80;68.50;11.40;100308.00;;;;5034420;28;20687;-73
2024/01/06 02:09:54;;;;;;;3.15;2.85;;;9.80;68.50;11.40;100312.00;;;;5034154;28;20196;-72
2024/01/06 02:12:21;;;;;;;3.83;3.17;;;9.70;68.40;11.40;100312.00;;;;5035569;28;20220;-72
2024/01/06 02:14:48;;;;;;;3.13;2.83;;;9.70;68.30;11.30;100317.00;;;;5034367;28;20231;-72
2024/01/06 02:17:15;;;;;;;3.33;3.03;;;9.70;68.50;11.30;100320.00;;;;5034351;28;20595;-72
2024/01/06 02:19:44;;;;;;;3.30;2.80;;;9.60;68.30;11.20;100317.00;;;;5033890;28;20227;-72
2024/01/06 02:22:12;;;;;;;3.40;2.90;;;9.60;68.30;11.20;100326.00;;;;5034000;28;20543;-73
2024/01/06 02:24:39;;;;;;;3.90;3.45;;;9.60;68.40;11.20;100321.00;;;;5033522;28;20227;-72
2024/01/06 02:27:06;;;;;;;3.60;3.30;;;9.60;68.40;11.20;100322.00;;;;5034445;28;20283;-72
2024/01/06 02:29:33;;;;;;;3.97;3.58;;;9.50;68.40;11.20;100326.00;;;;5036908;28;20218;-72
2024/01/06 02:32:00;;;;;;;3.42;3.13;;;9.50;68.50;11.10;100326.00;;;;5038150;28;20287;-72
2024/01/06 02:34:27;;;;;;;3.40;2.60;;;9.50;68.60;11.10;100335.00;;;;5033825;28;20223;-73
2024/01/06 02:36:54;;;;;;;3.33;3.03;;;9.50;68.60;11.10;100336.00;;;;5033141;28;20199;-74
2024/01/06 02:39:23;;;;;;;4.20;2.92;;;9.50;68.60;11.10;100335.00;;;;5033602;28;20734;-72
2024/01/06 02:41:50;;;;;;;3.63;3.03;;;9.50;68.70;11.20;100343.00;;;;5034111;28;20232;-73
2024/01/06 02:44:17;;;;;;;3.00;2.70;;;9.50;68.70;11.20;100343.00;;;;5033519;28;20289;-72
2024/01/06 02:46:44;;;;;;;4.00;3.10;;;9.50;68.90;11.20;100351.00;;;;5034395;28;20200;-72
2024/01/06 02:49:11;;;;;;;3.10;2.80;;;9.50;68.80;11.10;100347.00;;;;5033441;28;20191;-73
2024/01/06 02:51:38;;;;;;;4.47;2.95;;;9.50;68.60;11.10;100343.00;;;;5033319;28;20189;-72
2024/01/06 02:54:05;;;;;;;2.50;2.30;;;9.50;68.60;11.10;100352.00;;;;5032328;28;20686;-72
2024/01/06 02:56:34;;;;;;;3.88;2.50;;;9.50;68.60;11.10;100349.00;;;;5033655;28;20207;-72
2024/01/06 02:59:01;;;;;;;3.92;2.45;;;9.50;68.50;11.10;100352.00;;;;5033066;28;20288;-72
2024/01/06 03:01:28;;;;;;;3.17;2.85;;;9.40;68.30;11.00;100364.00;;;;5032865;28;20287;-73
2024/01/06 03:03:55;;;;;;;3.28;2.97;;;9.40;68.40;11.00;100354.00;;;;5033680;28;20196;-72
2024/01/06 03:06:22;;;;;;;2.50;2.28;;;9.40;68.50;11.00;100357.00;;;;5033579;28;20556;-72
2024/01/06 03:08:49;;;;;;;3.38;2.75;;;9.40;68.50;11.00;100360.00;;;;5033091;28;20199;-72
2024/01/06 03:11:16;;;;;;;3.92;2.30;;;9.40;68.50;11.00;100365.00;;;;5033166;28;20200;-72
2024/01/06 03:13:45;;;;;;;3.03;2.40;;;9.40;68.50;10.90;100366.00;;;;5033056;28;20200;-73
2024/01/06 03:16:13;;;;;;;3.30;2.55;;;9.30;68.40;10.90;100371.00;;;;5033142;28;20201;-72
2024/01/06 03:18:40;;;;;;;3.20;2.40;;;9.30;69.20;10.90;100377.00;;;;5033138;28;20204;-72
2024/01/06 03:21:18;;;;;;;2.67;2.45;;;9.30;69.30;10.80;100375.00;;;;5033144;28;20200;-73
2024/01/06 03:23:45;;;;;;;3.70;2.72;;;9.30;68.60;10.90;100377.00;;;;5032728;28;20202;-72
2024/01/06 03:26:12;;;;;;;3.20;2.83;;;9.30;68.60;10.90;100384.00;;;;5033378;28;20581;-73
2024/01/06 03:28:39;;;;;;;2.90;2.60;;;9.30;68.60;10.90;100385.00;;;;5032556;28;20283;-73
2024/01/06 03:31:07;;;;;;;2.88;2.58;;;9.30;68.50;10.90;100387.00;;;;5032720;28;20291;-73
2024/01/06 03:33:35;;;;;;;3.58;2.92;;;9.30;68.50;10.90;100389.00;;;;5023967;28;20188;-73
2024/01/06 03:36:07;;;;;;;3.08;2.60;;;9.30;68.50;10.80;100395.00;;;;5033003;28;20310;-73
2024/01/06 03:38:34;;;;;;;3.03;2.60;;;9.30;68.60;10.90;100400.00;;;;5041211;28;20290;-72
2024/01/06 03:41:01;;;;;;;2.88;2.58;;;9.20;68.60;10.90;100404.00;;;;5033239;28;20242;-72
2024/01/06 03:43:28;;;;;;;2.55;2.10;;;9.20;68.60;10.90;100404.00;;;;5032151;28;20204;-73
2024/01/06 03:45:56;;;;;;;3.13;2.70;;;9.20;68.60;10.90;100409.00;;;;5032215;28;20207;-73
2024/01/06 03:48:25;;;;;;;3.17;2.78;;;9.20;68.60;10.90;100413.00;;;;5031957;28;20212;-72
2024/01/06 03:50:52;;;;;;;3.88;2.95;;;9.20;68.60;10.90;100424.00;;;;5032607;28;20204;-72
2024/01/06 03:53:19;;;;;;;4.15;2.80;;;9.20;68.60;10.90;100415.00;;;;5031704;28;20201;-73
2024/01/06 03:55:46;;;;;;;4.47;2.55;;;9.20;68.60;10.90;100418.00;;;;5027344;28;20234;-72
2024/01/06 03:58:13;;;;;;;2.72;2.53;;;9.20;68.60;10.90;100420.00;;;;5032285;28;20287;-73
2024/01/06 04:00:40;;;;;;;3.58;2.75;;;9.20;68.50;10.90;100427.00;;;;5031751;28;20198;-73
2024/01/06 04:03:08;;;;;;;3.05;2.40;;;9.20;68.60;10.90;100435.00;;;;5032420;28;20200;-73
2024/01/06 04:05:36;;;;;;;4.68;3.75;;;9.20;68.40;10.80;100440.00;;;;5032261;28;20681;-72
2024/01/06 04:08:03;;;;;;;3.55;2.70;;;9.20;68.40;10.80;100440.00;;;;5031542;28;20684;-73
2024/01/06 04:10:30;;;;;;;3.53;2.95;;;9.20;68.50;10.80;100443.00;;;;5012514;28;20579;-72
2024/01/06 04:12:57;;;;;;;3.08;2.78;;;9.20;68.60;10.80;100444.00;;;;5028296;28;20200;-72
2024/01/06 04:15:24;;;;;;;4.00;3.42;;;9.20;68.60;10.80;100449.00;;;;5031943;28;20700;-73
2024/01/06 04:17:52;;;;;;;4.78;3.58;;;9.20;68.50;10.80;100445.00;;;;5031793;28;20220;-72
2024/01/06 04:20:19;;;;;;;4.50;3.60;;;9.10;68.50;10.80;100454.00;;;;5031503;28;20671;-73
2024/01/06 04:22:47;;;;;;;4.47;3.85;;;9.10;68.50;10.70;100447.00;;;;5031838;28;20287;-73
2024/01/06 04:25:15;;;;;;;4.80;3.92;;;9.10;68.50;10.70;100442.00;;;;5031458;28;20189;-73
2024/01/06 04:27:42;;;;;;;4.38;3.90;;;9.10;68.40;10.70;100445.00;;;;5031644;28;20204;-73
2024/01/06 04:30:10;;;;;;;4.28;3.70;;;9.10;68.40;10.70;100446.00;;;;5030732;28;20235;-73
2024/01/06 04:32:37;;;;;;;4.88;3.33;;;9.00;68.40;10.70;100458.00;;;;5031353;28;20196;-72
2024/01/06 04:35:06;;;;;;;4.60;3.83;;;9.00;68.40;10.60;100459.00;;;;5031213;28;20228;-73
2024/01/06 04:37:33;;;;;;;4.57;3.90;;;9.00;68.40;10.60;100458.00;;;;5031733;28;20193;-72
2024/01/06 04:40:02;;;;;;;4.82;3.75;;;9.00;68.40;10.60;100459.00;;;;5031479;28;20192;-73
2024/01/06 04:42:29;;;;;;;5.22;3.83;;;9.00;68.40;10.60;100462.00;;;;5031421;28;20659;-73
2024/01/06 04:44:56;;;;;;;4.22;3.63;;;8.90;68.40;10.60;100466.00;;;;5031180;28;20219;-72
2024/01/06 04:47:23;;;;;;;4.22;3.50;;;8.90;68.50;10.60;100469.00;;;;5032466;28;20207;-73
2024/01/06 04:49:50;;;;;;;4.07;3.55;;;8.90;68.50;10.60;100474.00;;;;5031450;28;20266;-72
2024/01/06 04:52:17;;;;;;;4.38;3.60;;;8.90;68.50;10.60;100479.00;;;;5031361;28;20673;-72
2024/01/06 04:54:44;;;;;;;4.93;3.97;;;8.90;68.50;10.50;100472.00;;;;5030639;28;20212;-72
2024/01/06 04:57:13;;;;;;;4.57;3.88;;;8.90;68.40;10.50;100476.00;;;;5031402;28;20207;-72
2024/01/06 04:59:40;;;;;;;5.38;3.42;;;8.90;68.50;10.60;100480.00;;;;5031556;28;20321;-73
2024/01/06 05:02:07;;;;;;;4.43;3.47;;;8.90;68.40;10.50;100487.00;;;;5030769;28;20291;-73
2024/01/06 05:04:34;;;;;;;4.97;4.07;;;8.90;68.40;10.50;100491.00;;;;5034225;28;20204;-73
2024/01/06 05:07:01;;;;;;;5.85;3.80;;;8.90;68.30;10.50;100499.00;;;;5030705;28;20262;-73
2024/01/06 05:09:28;;;;;;;5.88;4.07;;;8.90;68.30;10.50;100497.00;;;;5030907;28;20192;-73
2024/01/06 05:11:55;;;;;;;4.85;3.97;;;8.80;68.30;10.50;100498.00;;;;5031423;28;20192;-73
2024/01/06 05:14:24;;;;;;;4.78;4.18;;;8.80;68.30;10.50;100497.00;;;;5030611;28;20593;-73
2024/01/06 05:16:51;;;;;;;4.90;3.80;;;8.80;68.30;10.40;100501.00;;;;5030992;28;20590;-73
2024/01/06 05:19:20;;;;;;;5.32;3.90;;;8.80;68.40;10.50;100503.00;;;;5031826;28;20196;-73
2024/01/06 05:21:48;;;;;;;5.30;3.92;;;8.80;68.40;10.50;100517.00;;;;5011664;28;20216;-72
2024/01/06 05:24:15;;;;;;;6.25;4.53;;;8.80;68.40;10.40;100512.00;;;;5025411;28;20661;-72
2024/01/06 05:26:42;;;;;;;6.72;4.55;;;8.80;68.40;10.40;100508.00;;;;5035208;28;20193;-72
2024/01/06 05:29:10;;;;;;;11.40;4.70;;;8.80;68.40;10.40;100505.00;;;;5034721;28;20202;-73
2024/01/06 05:31:38;;;;;;;5.60;4.40;;;8.80;68.40;10.40;100516.00;;;;5035477;28;20220;-73
2024/01/06 05:34:05;;;;;;;6.20;4.88;;;8.70;68.30;10.40;100518.00;;;;5035100;28;20612;-73
2024/01/06 05:36:33;;;;;;;5.57;4.75;;;8.70;68.30;10.30;100522.00;;;;5034654;28;20224;-73
2024/01/06 05:39:00;;;;;;;4.45;3.75;;;8.70;68.30;10.40;100520.00;;;;5035116;28;20684;-72
2024/01/06 05:41:27;;;;;;;9.02;5.13;;;8.70;68.30;10.40;100521.00;;;;5034847;28;20740;-73
2024/01/06 05:43:54;;;;;;;6.38;5.13;;;8.70;68.30;10.30;100527.00;;;;5034815;28;20205;-73
2024/01/06 05:46:26;;;;;;;5.57;4.70;;;8.70;68.30;10.30;100525.00;;;;5034541;28;20199;-73
2024/01/06 05:48:55;;;;;;;5.72;4.60;;;8.60;68.30;10.30;100528.00;;;;5034739;28;20196;-73
2024/01/06 05:51:23;;;;;;;8.45;4.85;;;8.60;68.40;10.30;100534.00;;;;5034646;28;20192;-73
2024/01/06 05:53:50;;;;;;;7.55;5.40;;;8.60;68.40;10.30;100530.00;;;;5034896;28;20278;-72
2024/01/06 05:56:25;;;;;;;5.88;4.70;;;8.60;68.40;10.20;100535.00;;;;5034727;28;20227;-72
2024/01/06 05:58:52;;;;;;;6.07;4.90;;;8.60;68.40;10.20;100536.00;;;;5034927;28;20200;-73
2024/01/06 06:01:20;;;;;;;6.80;4.68;;;8.60;69.20;10.20;100541.00;;;;5034301;28;20670;-72
2024/01/06 06:03:47;;;;;;;5.97;4.72;;;8.60;68.60;10.20;100543.00;;;;5034502;28;20208;-72
2024/01/06 06:06:16;;;;;;;6.47;4.88;;;8.60;68.50;10.20;100558.00;;;;5033934;28;20203;-73
2024/01/06 06:08:43;;;;;;;5.45;4.82;;;8.50;68.50;10.20;100553.00;;;;5034628;28;20744;-73
2024/01/06 06:11:11;;;;;;;7.05;4.70;;;8.50;68.50;10.20;100561.00;;;;5043261;28;20214;-73
2024/01/06 06:13:41;;;;;;;8.13;5.88;;;8.50;68.70;10.20;100553.00;;;;5038671;28;20192;-72
2024/01/06 06:16:12;;;;;;;6.75;4.72;;;8.50;68.60;10.20;100566.00;;;;5034002;28;20692;-72
2024/01/06 06:18:39;;;;;;;6.35;4.70;;;8.50;68.50;10.20;100565.00;;;;5033390;28;20208;-72
2024/01/06 06:21:07;;;;;;;7.32;4.88;;;8.50;68.60;10.20;100566.00;;;;5034506;28;20206;-73
2024/01/06 06:23:36;;;;;;;7.88;5.93;;;8.50;68.60;10.20;100580.00;;;;5034085;28;20188;-72
2024/01/06 06:26:06;;;;;;;8.40;5.32;;;8.50;68.70;10.20;100580.00;;;;5034386;28;20203;-72
2024/01/06 06:28:34;;;;;;;8.15;5.93;;;8.50;68.70;10.20;100592.00;;;;5042341;28;20208;-73
2024/01/06 06:31:01;;;;;;;6.60;5.82;;;8.50;68.70;10.20;100586.00;;;;5033815;28;20203;-72
2024/01/06 06:33:28;;;;;;;6.55;5.70;;;8.50;68.70;10.20;100591.00;;;;5033186;28;20662;-73
2024/01/06 06:35:55;;;;;;;10.38;5.97;;;8.50;68.60;10.20;100596.00;;;;5032616;28;20228;-72
2024/01/06 06:38:22;;;;;;;8.60;5.75;;;8.50;68.50;10.20;100598.00;;;;5031763;28;20202;-73
2024/01/06 06:40:51;;;;;;;7.65;5.65;;;8.50;68.60;10.10;100611.00;;;;5033817;28;20658;-72
2024/01/06 06:43:18;;;;;;;6.65;5.32;;;8.50;68.60;10.10;100613.00;;;;5033750;28;20290;-72
2024/01/06 06:45:45;;;;;;;6.47;5.22;;;8.50;68.60;10.10;100613.00;;;;5046737;28;20578;-73
2024/01/06 06:48:12;;;;;;;6.35;5.50;;;8.40;68.60;10.10;100626.00;;;;5033232;28;20211;-73
2024/01/06 06:50:40;;;;;;;6.53;5.38;;;8.40;68.70;10.20;100633.00;;;;5034148;28;20196;-72
2024/01/06 06:53:09;;;;;;;5.90;5.05;;;8.40;68.80;10.10;100638.00;;;;5033375;28;20854;-72
2024/01/06 06:55:37;;;;;;;7.22;5.00;;;8.40;68.70;10.10;100638.00;;;;5014118;28;20235;-72
2024/01/06 06:58:06;;;;;;;7.50;5.78;;;8.40;68.60;10.10;100646.00;;;;5018790;28;20200;-72
2024/01/06 07:00:33;;;;;;;6.40;5.25;;;8.50;68.60;10.10;100642.00;;;;5033092;28;20208;-72
2024/01/06 07:03:00;;;;;;;5.15;3.92;;;8.40;68.60;10.10;100649.00;;;;5033669;28;20200;-72
2024/01/06 07:05:27;;;;;;;5.47;4.63;;;8.40;68.60;10.10;100649.00;;;;5032610;28;20188;-73
2024/01/06 07:07:55;;;;;;;6.40;4.80;;;8.40;68.50;10.10;100654.00;;;;5033071;28;20196;-73
2024/01/06 07:10:23;;;;;;;5.85;4.90;;;8.40;68.50;10.00;100662.00;;;;5033179;28;20200;-73
2024/01/06 07:12:50;;;;;;;5.03;4.25;;;8.40;68.50;10.00;100672.00;;;;5033155;28;20284;-72
2024/01/06 07:15:18;;;;;;;6.32;4.88;;;8.40;68.50;10.00;100666.00;;;;5032867;28;20220;-72
2024/01/06 07:17:46;;;;;;;6.38;4.60;;;8.30;68.50;9.90;100673.00;;;;5032717;28;20219;-72
2024/01/06 07:20:13;;;;;;;6.40;4.25;;;8.30;68.40;9.90;100675.00;;;;5050450;28;20745;-72
2024/01/06 07:22:41;;;;;;;5.95;4.45;;;8.30;68.50;9.90;100685.00;;;;5045486;28;20204;-73
2024/01/06 07:25:08;;;;;;;6.45;5.13;;;8.30;68.60;9.90;100686.00;;;;5032568;28;20196;-72
2024/01/06 07:27:35;;;;;;;6.95;4.60;;;8.30;68.80;9.90;100686.00;;;;5032969;28;20279;-72
2024/01/06 07:30:02;;;;;;;8.00;4.90;;;8.30;68.80;10.00;100689.00;;;;5032513;28;20199;-72
2024/01/06 07:32:32;;;;;;;5.28;4.10;;;8.30;68.80;9.90;100689.00;;;;5032658;28;20198;-73
2024/01/06 07:34:59;;;;;;;6.63;4.93;;;8.30;68.80;9.90;100692.00;;;;5016151;28;21354;-72
2024/01/06 07:37:26;;;;;;;5.30;4.20;;;8.20;68.60;9.90;100698.00;;;;5032617;28;20563;-72
2024/01/06 07:39:53;;;;;;;4.97;3.85;;;8.30;68.70;9.90;100693.00;;;;5032432;28;20200;-72
2024/01/06 07:42:21;;;;;;;5.57;4.30;;;8.30;68.80;9.90;100707.00;;;;5032151;28;20192;-72
2024/01/06 07:44:48;;;;;;;5.53;3.92;;;8.30;68.70;9.90;100711.00;;;;5032989;28;20193;-72
2024/01/06 07:47:16;;;;;;;6.03;4.25;;;8.30;68.60;9.90;100717.00;;;;5031542;28;20189;-73
2024/01/06 07:49:44;;;;;;;5.75;4.05;;;8.20;68.50;9.90;100721.00;;;;5033263;28;20201;-72
2024/01/06 07:52:11;;;;;;;6.90;4.90;;;8.30;68.60;9.90;100722.00;;;;5032238;28;21852;-72
2024/01/06 07:54:38;;;;;;;7.30;4.88;;;8.30;68.60;9.90;100727.00;;;;5052648;28;20302;-72
2024/01/06 07:57:05;;;;;;;5.13;4.32;;;8.30;68.40;9.90;100729.00;;;;5043284;28;20231;-72
2024/01/06 07:59:32;;;;;;;7.05;4.68;;;8.30;68.50;9.90;100728.00;;;;5020572;28;20192;-73
2024/01/06 08:01:59;;;;;;;5.72;4.10;;;8.30;68.40;9.90;100738.00;;;;5031996;28;20658;-72
2024/01/06 08:04:26;;;;;;;6.28;4.70;;;8.30;68.40;9.90;100735.00;;;;5031894;28;20202;-73
2024/01/06 08:06:55;;;;;;;8.90;4.15;;;8.30;68.40;9.90;100741.00;;;;5032385;28;20203;-73
2024/01/06 08:09:23;;;;;;;6.75;4.25;;;8.30;68.40;10.00;100746.00;;;;5032333;28;20206;-73
2024/01/06 08:11:50;;;;;;;5.03;4.13;;;8.30;68.40;10.00;100754.00;;;;5031712;28;20184;-72
2024/01/06 08:14:17;;;;;;;7.30;4.53;;;8.30;68.40;10.00;100749.00;;;;5032344;28;20200;-72
2024/01/06 08:16:44;;;;;;;4.80;4.13;;;8.30;68.40;10.00;100761.00;;;;5032142;28;20228;-72
2024/01/06 08:19:11;;;;;;;5.45;3.90;;;8.30;68.40;10.00;100758.00;;;;5031925;28;20200;-73
2024/01/06 08:21:38;;;;;;;4.78;4.07;;;8.30;68.30;10.00;100754.00;;;;5032287;28;20200;-72
2024/01/06 08:24:07;;;;;;;6.07;3.92;;;8.30;68.30;9.90;100769.00;;;;5031108;28;20192;-72
2024/01/06 08:26:34;;;;;;;5.78;4.20;;;8.30;68.30;10.00;100763.00;;;;5032703;28;20287;-73
2024/01/06 08:29:01;;;;;;;6.05;4.25;;;8.30;68.20;10.00;100774.00;;;;5031798;28;20271;-73
2024/01/06 08:31:27;;;;;;;6.00;3.97;;;8.30;68.30;10.00;100777.00;;;;5031452;28;20204;-72
2024/01/06 08:33:55;;;;;;;5.25;4.55;;;8.30;68.30;9.90;100778.00;;;;5031217;28;20283;-72
2024/01/06 08:36:22;;;;;;;7.88;4.25;;;8.30;68.20;9.90;100782.00;;;;5031687;28;20244;-73
2024/01/06 08:38:49;;;;;;;4.75;4.25;;;8.30;68.10;9.90;100794.00;;;;5030881;28;20219;-72
2024/01/06 08:41:18;;;;;;;5.55;4.20;;;8.30;68.10;9.90;100786.00;;;;5031518;28;20207;-73
2024/01/06 08:43:45;;;;;;;5.15;3.85;;;8.30;68.20;9.90;100796.00;;;;5032126;28;20235;-73
2024/01/06 08:46:12;;;;;;;5.13;3.83;;;8.30;68.20;9.90;100798.00;;;;5031610;28;20215;-72
2024/01/06 08:48:39;;;;;;;6.78;4.72;;;8.30;68.20;9.90;100808.00;;;;5031506;28;20204;-73
2024/01/06 08:51:06;;;;;;;5.75;4.10;;;8.30;68.20;9.90;100807.00;;;;5031431;28;20485;-72
2024/01/06 08:53:33;;;;;;;5.18;4.15;;;8.30;68.20;9.90;100809.00;;;;5033254;28;20188;-73
2024/01/06 08:56:00;;;;;;;6.65;4.30;;;8.30;68.10;10.00;100811.00;;;;5031494;28;20212;-72
2024/01/06 08:58:28;;;;;;;6.53;4.63;;;8.30;68.10;10.00;100823.00;;;;5036646;28;20196;-72
2024/01/06 09:00:55;;;;;;;4.78;3.97;;;8.30;68.20;10.00;100833.00;;;;5038324;28;20199;-73
2024/01/06 09:03:25;;;;;;;6.65;4.40;;;8.30;68.20;10.00;100832.00;;;;5038386;28;20200;-73
2024/01/06 09:05:53;;;;;;;5.20;4.07;;;8.30;68.10;10.00;100839.00;;;;5020191;28;20204;-73
2024/01/06 09:08:20;;;;;;;4.63;3.50;;;8.30;68.80;10.00;100844.00;;;;5038071;28;20200;-73
2024/01/06 09:10:47;;;;;;;6.90;4.05;;;8.30;68.10;10.00;100847.00;;;;5037237;28;20207;-73
2024/01/06 09:13:14;;;;;;;5.75;4.00;;;8.30;68.00;10.10;100849.00;;;;5037164;28;20227;-73
2024/01/06 09:15:43;;;;;;;4.93;3.70;;;8.40;68.00;10.10;100845.00;;;;5037481;28;20278;-73
2024/01/06 09:18:10;;;;;;;4.90;3.55;;;8.40;68.10;10.10;100850.00;;;;5046146;28;20219;-73
2024/01/06 09:20:38;;;;;;;4.80;3.90;;;8.40;68.20;10.20;100866.00;;;;5058110;28;20298;-73
2024/01/06 09:23:05;;;;;;;5.00;4.05;;;8.40;68.10;10.20;100858.00;;;;5048255;28;20287;-72
2024/01/06 09:25:32;;;;;;;5.80;4.05;;;8.40;68.00;10.20;100865.00;;;;5038020;28;20204;-73
2024/01/06 09:28:00;;;;;;;4.00;3.10;;;8.40;67.90;10.20;100869.00;;;;5037866;28;20577;-72
2024/01/06 09:30:27;;;;;;;5.78;4.15;;;8.50;68.00;10.20;100875.00;;;;5037818;28;20200;-73
2024/01/06 09:32:56;;;;;;;5.55;3.78;;;8.50;67.90;10.30;100880.00;;;;5037659;28;20219;-72
2024/01/06 09:35:23;;;;;;;3.97;3.13;;;8.50;67.90;10.30;100882.00;;;;5038127;28;20673;-72
2024/01/06 09:37:50;;;;;;;5.85;3.50;;;8.50;67.90;10.30;100882.00;;;;5037706;28;20292;-72
2024/01/06 09:40:23;;;;;;;6.22;4.20;;;8.50;67.90;10.30;100885.00;;;;5038184;28;20207;-73
2024/01/06 09:42:51;;;;;;;5.45;4.00;;;8.60;67.70;10.30;100891.00;;;;5037889;28;20188;-73
2024/01/06 09:45:18;;;;;;;4.68;3.50;;;8.60;67.60;10.40;100897.00;;;;5037159;28;20226;-73
2024/01/06 09:47:51;;;;;;;5.25;3.78;;;8.60;67.60;10.30;100895.00;;;;5037725;28;20198;-72
2024/01/06 09:50:21;;;;;;;5.50;3.90;;;8.60;67.60;10.40;100896.00;;;;5037864;28;20220;-73
2024/01/06 09:52:53;;;;;;;4.90;3.08;;;8.60;67.50;10.40;100894.00;;;;5044767;28;20218;-73
2024/01/06 09:55:27;;;;;;;4.47;3.55;;;8.70;67.70;10.40;100905.00;;;;5037459;28;20257;-72
2024/01/06 09:57:54;;;;;;;4.20;3.38;;;8.70;67.70;10.50;100901.00;;;;5037516;28;20216;-73
2024/01/06 10:00:22;;;;;;;5.32;3.75;;;8.70;67.80;10.50;100913.00;;;;5036875;28;20291;-73
2024/01/06 10:02:50;;;;;;;3.78;2.80;;;8.70;67.70;10.50;100916.00;;;;5037453;28;20661;-73
2024/01/06 10:05:20;;;;;;;4.88;3.33;;;8.80;67.60;10.50;100922.00;;;;5037232;28;20747;-73
2024/01/06 10:07:48;;;;;;;4.18;3.30;;;8.80;67.50;10.50;100929.00;;;;5037355;28;20258;-73
2024/01/06 10:10:16;;;;;;;5.95;3.78;;;8.80;67.40;10.60;100927.00;;;;5034242;28;20212;-74
2024/01/06 10:12:44;;;;;;;3.92;3.22;;;8.80;67.40;10.60;100931.00;;;;5033809;28;20274;-74
2024/01/06 10:15:12;;;;;;;6.82;3.80;;;8.80;67.40;10.60;100931.00;;;;5033848;28;20295;-73
2024/01/06 10:17:40;;;;;;;7.05;4.03;;;8.80;67.40;10.60;100933.00;;;;5033930;28;20228;-74
2024/01/06 10:20:13;;;;;;;5.20;3.60;;;8.80;67.30;10.60;100938.00;;;;5034143;28;20189;-74
2024/01/06 10:22:44;;;;;;;4.15;3.70;;;8.90;67.40;10.60;100946.00;;;;5034278;28;20200;-74
2024/01/06 10:25:12;;;;;;;5.13;3.45;;;8.90;67.40;10.60;100948.00;;;;5034717;28;20676;-74
2024/01/06 10:27:41;;;;;;;4.80;3.67;;;8.90;67.20;10.60;100948.00;;;;5033586;28;20591;-74
2024/01/06 10:30:10;;;;;;;4.32;3.60;;;8.90;67.20;10.60;100951.00;;;;5034004;28;20287;-74
2024/01/06 10:32:38;;;;;;;4.05;3.28;;;8.90;67.10;10.70;100959.00;;;;5033798;28;20188;-74
2024/01/06 10:35:06;;;;;;;5.28;3.78;;;8.90;67.10;10.70;100965.00;;;;5034235;28;20228;-74
2024/01/06 10:37:34;;;;;;;5.03;3.35;;;8.90;67.10;10.70;100956.00;;;;5033816;28;20228;-74
2024/01/06 10:40:11;;;;;;;5.43;3.28;;;8.90;67.00;10.60;100963.00;;;;5033739;28;20291;-74
2024/01/06 10:42:40;;;;;;;4.15;3.17;;;8.90;66.90;10.70;100965.00;;;;5034229;28;20614;-73
2024/01/06 10:45:10;;;;;;;5.88;3.63;;;9.00;66.90;10.70;100966.00;;;;5034021;28;20227;-74
2024/01/06 10:47:38;;;;;;;3.72;3.03;;;9.00;66.90;10.80;100968.00;;;;5033581;28;20665;-74
2024/01/06 10:50:07;;;;;;;4.72;3.30;;;9.00;67.00;10.80;100971.00;;;;5033284;28;20197;-74
2024/01/06 10:52:35;;;;;;;4.10;3.33;;;9.00;67.00;10.80;100966.00;;;;5033175;28;20242;-74
2024/01/06 10:55:03;;;;;;;4.45;3.38;;;9.00;66.90;10.80;100971.00;;;;5050127;28;20298;-73
2024/01/06 10:57:32;;;;;;;4.75;3.17;;;9.00;66.80;10.70;100967.00;;;;5051122;28;20238;-74